createdAt,value
2016-07-21T00:00:12.033Z,17.79
2016-07-21T00:01:12.086Z,17.84
2016-07-21T00:02:13.750Z,17.87
2016-07-21T00:03:12.136Z,17.84
2016-07-21T00:04:12.004Z,17.81
2016-07-21T00:05:11.998Z,17.83
2016-07-21T00:06:12.694Z,17.81
2016-07-21T00:07:11.971Z,17.84
2016-07-21T00:08:12.131Z,17.84
2016-07-21T00:09:12.085Z,17.79
2016-07-21T00:10:12.069Z,17.83
2016-07-21T00:11:12.016Z,17.87
2016-07-21T00:12:11.995Z,17.92
2016-07-21T00:13:12.003Z,17.94
2016-07-21T00:14:13.274Z,18.02
2016-07-21T00:15:12.071Z,18.05
2016-07-21T00:16:11.998Z,18.06
2016-07-21T00:17:12.236Z,18.03
2016-07-21T00:18:12.004Z,18.1
2016-07-21T00:19:11.974Z,18.05
2016-07-21T00:20:11.969Z,18.14
2016-07-21T00:21:12.039Z,18.19
2016-07-21T00:22:13.186Z,18.17
2016-07-21T00:23:12.033Z,18.19
2016-07-21T00:24:12.279Z,18.32
2016-07-21T00:25:12.019Z,18.23
2016-07-21T00:26:11.964Z,18.21
2016-07-21T00:27:11.954Z,18.31
2016-07-21T00:28:12.019Z,18.27
2016-07-21T00:29:11.939Z,18.2
2016-07-21T00:30:11.934Z,18.32
2016-07-21T00:31:11.939Z,18.23
2016-07-21T00:32:12.022Z,18.26
2016-07-21T00:33:12.022Z,18.31
2016-07-21T00:34:12.022Z,18.26
2016-07-21T00:35:12.751Z,18.31
2016-07-21T00:36:12.988Z,18.32
2016-07-21T00:37:11.962Z,18.35
2016-07-21T00:38:13.178Z,18.32
2016-07-21T00:39:12.005Z,18.38
2016-07-21T00:40:12.022Z,18.35
2016-07-21T00:41:11.931Z,18.36
2016-07-21T00:42:11.906Z,18.36
2016-07-21T00:43:11.933Z,18.47
2016-07-21T00:44:12.258Z,18.44
2016-07-21T00:45:11.946Z,18.41
2016-07-21T00:46:11.951Z,18.36
2016-07-21T00:47:12.250Z,18.35
2016-07-21T00:48:11.915Z,18.42
2016-07-21T00:49:11.918Z,18.42
2016-07-21T00:50:11.942Z,18.42
2016-07-21T00:51:11.985Z,18.45
2016-07-21T00:52:11.921Z,18.41
2016-07-21T00:53:12.743Z,18.5
2016-07-21T00:54:11.898Z,18.44
2016-07-21T00:55:11.905Z,18.53
2016-07-21T00:56:11.937Z,18.47
2016-07-21T00:57:12.792Z,18.51
2016-07-21T00:58:12.722Z,18.49
2016-07-21T00:59:11.936Z,18.51
2016-07-21T01:00:11.904Z,18.51
2016-07-21T01:01:11.902Z,18.51
2016-07-21T01:02:11.894Z,18.54
2016-07-21T01:03:11.890Z,18.53
2016-07-21T01:04:11.973Z,18.51
2016-07-21T01:05:11.884Z,18.5
2016-07-21T01:06:11.891Z,18.57
2016-07-21T01:07:11.886Z,18.59
2016-07-21T01:08:11.937Z,18.53
2016-07-21T01:09:11.898Z,18.57
2016-07-21T01:10:11.903Z,18.59
2016-07-21T01:11:11.933Z,18.53
2016-07-21T01:12:11.926Z,18.51
2016-07-21T01:13:11.947Z,18.5
2016-07-21T01:14:12.155Z,18.54
2016-07-21T01:15:12.718Z,18.5
2016-07-21T01:16:11.953Z,18.5
2016-07-21T01:17:11.888Z,18.57
2016-07-21T01:18:11.960Z,18.59
2016-07-21T01:19:15.085Z,18.57
2016-07-21T01:20:12.646Z,18.5
2016-07-21T01:21:11.904Z,18.53
2016-07-21T01:22:12.016Z,18.53
2016-07-21T01:23:12.942Z,18.51
2016-07-21T01:24:12.001Z,18.56
2016-07-21T01:25:12.102Z,18.66
2016-07-21T01:26:11.857Z,18.63
2016-07-21T01:27:11.870Z,18.66
2016-07-21T01:28:11.918Z,18.63
2016-07-21T01:29:12.558Z,18.71
2016-07-21T01:30:11.846Z,18.6
2016-07-21T01:31:11.877Z,18.65
2016-07-21T01:32:11.901Z,18.59
2016-07-21T01:33:11.955Z,18.69
2016-07-21T01:34:11.954Z,18.72
2016-07-21T01:35:11.918Z,18.68
2016-07-21T01:36:11.894Z,18.65
2016-07-21T01:37:11.999Z,18.6
2016-07-21T01:38:11.940Z,18.65
2016-07-21T01:39:11.834Z,18.63
2016-07-21T01:40:13.080Z,18.56
2016-07-21T01:41:11.929Z,18.49
2016-07-21T01:42:11.918Z,18.5
2016-07-21T01:43:11.962Z,18.47
2016-07-21T01:44:11.934Z,18.45
2016-07-21T01:45:12.142Z,18.39
2016-07-21T01:46:11.906Z,18.36
2016-07-21T01:47:11.904Z,18.36
2016-07-21T01:48:12.170Z,18.35
2016-07-21T01:49:11.899Z,18.44
2016-07-21T01:50:12.819Z,18.42
2016-07-21T01:51:12.012Z,18.44
2016-07-21T01:52:11.920Z,18.35
2016-07-21T01:53:11.897Z,18.44
2016-07-21T01:54:11.891Z,18.42
2016-07-21T01:55:11.900Z,18.41
2016-07-21T01:56:11.947Z,18.39
2016-07-21T01:57:11.851Z,18.44
2016-07-21T01:58:12.614Z,18.35
2016-07-21T01:59:12.651Z,18.42
2016-07-21T02:00:11.949Z,18.35
2016-07-21T02:01:11.889Z,18.41
2016-07-21T02:02:11.896Z,18.36
2016-07-21T02:03:11.791Z,18.31
2016-07-21T02:04:11.805Z,18.36
2016-07-21T02:05:11.813Z,18.35
2016-07-21T02:06:11.804Z,18.44
2016-07-21T02:07:11.918Z,18.42
2016-07-21T02:08:11.849Z,18.47
2016-07-21T02:09:11.843Z,18.41
2016-07-21T02:10:11.854Z,18.38
2016-07-21T02:11:11.853Z,18.36
2016-07-21T02:12:11.866Z,18.36
2016-07-21T02:13:11.852Z,18.32
2016-07-21T02:14:12.151Z,18.32
2016-07-21T02:15:12.622Z,18.38
2016-07-21T02:16:11.909Z,18.38
2016-07-21T02:17:12.786Z,18.36
2016-07-21T02:18:11.788Z,18.41
2016-07-21T02:19:11.811Z,18.42
2016-07-21T02:20:11.822Z,18.5
2016-07-21T02:21:11.850Z,18.47
2016-07-21T02:22:11.834Z,18.53
2016-07-21T02:23:12.571Z,18.59
2016-07-21T02:24:11.836Z,18.54
2016-07-21T02:25:11.858Z,18.57
2016-07-21T02:26:11.874Z,18.59
2016-07-21T02:27:11.973Z,18.61
2016-07-21T02:28:11.762Z,18.66
2016-07-21T02:29:11.809Z,18.66
2016-07-21T02:30:11.852Z,18.66
2016-07-21T02:31:11.802Z,18.68
2016-07-21T02:32:11.795Z,18.63
2016-07-21T02:33:11.794Z,18.75
2016-07-21T02:34:11.804Z,18.76
2016-07-21T02:35:11.895Z,18.81
2016-07-21T02:36:11.913Z,18.79
2016-07-21T02:37:13.387Z,18.75
2016-07-21T02:38:11.970Z,18.81
2016-07-21T02:39:11.908Z,18.79
2016-07-21T02:40:11.824Z,18.79
2016-07-21T02:41:11.840Z,18.79
2016-07-21T02:42:11.888Z,18.72
2016-07-21T02:43:11.844Z,18.76
2016-07-21T02:44:12.835Z,18.71
2016-07-21T02:45:12.803Z,18.68
2016-07-21T02:46:11.864Z,18.69
2016-07-21T02:47:12.830Z,18.78
2016-07-21T02:48:11.884Z,18.75
2016-07-21T02:49:12.087Z,18.68
2016-07-21T02:50:11.832Z,18.72
2016-07-21T02:51:11.847Z,18.71
2016-07-21T02:52:11.792Z,18.76
2016-07-21T02:53:12.476Z,18.72
2016-07-21T02:54:11.756Z,18.75
2016-07-21T02:55:11.761Z,18.74
2016-07-21T02:56:11.857Z,18.75
2016-07-21T02:57:11.988Z,18.68
2016-07-21T02:58:12.642Z,18.79
2016-07-21T02:59:11.882Z,18.75
2016-07-21T03:00:12.270Z,18.82
2016-07-21T03:01:11.874Z,18.89
2016-07-21T03:02:11.801Z,18.91
2016-07-21T03:03:11.810Z,18.94
2016-07-21T03:04:11.773Z,18.94
2016-07-21T03:05:11.740Z,18.97
2016-07-21T03:06:11.785Z,18.99
2016-07-21T03:07:12.756Z,18.96
2016-07-21T03:08:11.809Z,19.06
2016-07-21T03:09:11.738Z,18.99
2016-07-21T03:10:11.761Z,19.06
2016-07-21T03:11:11.889Z,19
2016-07-21T03:12:12.631Z,19
2016-07-21T03:13:11.775Z,18.91
2016-07-21T03:14:11.784Z,18.99
2016-07-21T03:15:11.728Z,18.97
2016-07-21T03:16:11.779Z,18.94
2016-07-21T03:17:11.771Z,18.87
2016-07-21T03:18:11.833Z,18.9
2016-07-21T03:19:12.805Z,18.93
2016-07-21T03:20:12.036Z,18.91
2016-07-21T03:21:11.850Z,18.96
2016-07-21T03:22:11.808Z,19.02
2016-07-21T03:23:11.767Z,19
2016-07-21T03:24:11.768Z,19.06
2016-07-21T03:25:11.776Z,19.09
2016-07-21T03:26:11.800Z,19.07
2016-07-21T03:27:11.788Z,19.16
2016-07-21T03:28:11.794Z,19.2
2016-07-21T03:29:11.798Z,19.17
2016-07-21T03:30:11.742Z,19.23
2016-07-21T03:31:11.742Z,19.27
2016-07-21T03:32:11.730Z,19.32
2016-07-21T03:33:11.732Z,19.35
2016-07-21T03:34:11.740Z,19.4
2016-07-21T03:35:12.816Z,19.46
2016-07-21T03:36:12.058Z,19.49
2016-07-21T03:37:11.882Z,19.55
2016-07-21T03:38:11.763Z,19.52
2016-07-21T03:39:11.787Z,19.49
2016-07-21T03:40:11.712Z,19.52
2016-07-21T03:41:11.720Z,19.64
2016-07-21T03:42:11.832Z,19.61
2016-07-21T03:43:11.739Z,19.55
2016-07-21T03:44:11.690Z,19.53
2016-07-21T03:45:11.714Z,19.55
2016-07-21T03:46:11.757Z,19.56
2016-07-21T03:47:12.577Z,19.47
2016-07-21T03:48:11.724Z,19.55
2016-07-21T03:49:11.747Z,19.64
2016-07-21T03:50:11.810Z,19.56
2016-07-21T03:51:12.818Z,19.55
2016-07-21T03:52:12.539Z,19.57
2016-07-21T03:53:13.590Z,19.63
2016-07-21T03:54:12.216Z,19.56
2016-07-21T03:55:11.767Z,19.56
2016-07-21T03:56:12.014Z,19.56
2016-07-21T03:57:12.536Z,19.53
2016-07-21T03:58:11.863Z,19.52
2016-07-21T03:59:11.717Z,19.55
2016-07-21T04:00:11.721Z,19.57
2016-07-21T04:01:11.733Z,19.56
2016-07-21T04:02:11.852Z,19.63
2016-07-21T04:03:11.758Z,19.72
2016-07-21T04:04:11.808Z,19.75
2016-07-21T04:05:11.772Z,19.71
2016-07-21T04:06:11.713Z,19.75
2016-07-21T04:07:11.720Z,19.82
2016-07-21T04:08:11.681Z,19.87
2016-07-21T04:09:11.695Z,19.82
2016-07-21T04:10:11.775Z,19.95
2016-07-21T04:11:11.748Z,19.95
2016-07-21T04:12:12.022Z,20.02
2016-07-21T04:13:12.731Z,20.08
2016-07-21T04:14:12.888Z,20.16
2016-07-21T04:15:11.763Z,20.15
2016-07-21T04:16:11.731Z,20.16
2016-07-21T04:17:11.686Z,20.29
2016-07-21T04:18:12.506Z,20.26
2016-07-21T04:19:11.743Z,20.37
2016-07-21T04:20:11.681Z,20.46
2016-07-21T04:21:11.687Z,20.44
2016-07-21T04:22:11.887Z,20.46
2016-07-21T04:23:11.697Z,20.46
2016-07-21T04:24:11.696Z,20.48
2016-07-21T04:25:11.699Z,20.42
2016-07-21T04:26:11.737Z,20.53
2016-07-21T04:27:12.127Z,20.51
2016-07-21T04:28:11.753Z,20.53
2016-07-21T04:29:11.797Z,20.58
2016-07-21T04:30:12.524Z,20.66
2016-07-21T04:31:11.752Z,20.54
2016-07-21T04:32:11.724Z,20.72
2016-07-21T04:33:11.704Z,20.74
2016-07-21T04:34:11.718Z,20.81
2016-07-21T04:35:12.496Z,20.85
2016-07-21T04:36:12.529Z,20.93
2016-07-21T04:37:11.825Z,20.85
2016-07-21T04:38:11.766Z,21
2016-07-21T04:39:11.772Z,21.08
2016-07-21T04:40:11.785Z,21.09
2016-07-21T04:41:11.743Z,21.18
2016-07-21T04:42:11.817Z,21.15
2016-07-21T04:43:11.777Z,21.15
2016-07-21T04:44:11.734Z,21.13
2016-07-21T04:45:11.621Z,21.16
2016-07-21T04:46:11.626Z,21.13
2016-07-21T04:47:11.621Z,21.12
2016-07-21T04:48:11.650Z,21.03
2016-07-21T04:49:11.650Z,21.03
2016-07-21T04:50:11.635Z,21.01
2016-07-21T04:51:11.668Z,20.86
2016-07-21T04:52:11.668Z,20.93
2016-07-21T04:53:11.682Z,20.82
2016-07-21T04:54:11.681Z,20.74
2016-07-21T04:55:11.698Z,20.71
2016-07-21T04:56:11.701Z,20.71
2016-07-21T04:57:11.703Z,20.51
2016-07-21T04:58:11.599Z,20.4
2016-07-21T04:59:11.618Z,20.4
2016-07-21T05:00:11.627Z,20.29
2016-07-21T05:01:11.637Z,20.27
2016-07-21T05:02:11.630Z,20.19
2016-07-21T05:03:11.639Z,20.15
2016-07-21T05:04:11.649Z,20.07
2016-07-21T05:05:11.694Z,20.07
2016-07-21T05:06:11.690Z,19.92
2016-07-21T05:07:11.700Z,19.95
2016-07-21T05:08:11.670Z,20.02
2016-07-21T05:09:11.681Z,20.01
2016-07-21T05:10:11.604Z,19.89
2016-07-21T05:11:11.602Z,19.9
2016-07-21T05:12:11.609Z,19.85
2016-07-21T05:13:11.615Z,19.87
2016-07-21T05:14:11.625Z,19.9
2016-07-21T05:15:11.629Z,19.79
2016-07-21T05:16:11.636Z,19.78
2016-07-21T05:17:11.654Z,19.8
2016-07-21T05:18:11.647Z,19.7
2016-07-21T05:19:11.655Z,19.79
2016-07-21T05:20:11.659Z,19.72
2016-07-21T05:21:11.671Z,19.82
2016-07-21T05:22:11.690Z,19.78
2016-07-21T05:23:11.597Z,19.78
2016-07-21T05:24:11.606Z,19.83
2016-07-21T05:25:11.603Z,19.83
2016-07-21T05:26:11.620Z,19.8
2016-07-21T05:27:11.609Z,19.7
2016-07-21T05:28:11.613Z,19.63
2016-07-21T05:29:11.626Z,19.71
2016-07-21T05:30:11.647Z,19.67
2016-07-21T05:31:11.658Z,19.63
2016-07-21T05:32:11.659Z,19.57
2016-07-21T05:33:11.662Z,19.56
2016-07-21T05:34:11.660Z,19.57
2016-07-21T05:35:11.601Z,19.53
2016-07-21T05:36:11.626Z,19.55
2016-07-21T05:37:11.586Z,19.5
2016-07-21T05:38:11.606Z,19.53
2016-07-21T05:39:11.605Z,19.52
2016-07-21T05:40:12.317Z,19.5
2016-07-21T05:41:11.625Z,19.47
2016-07-21T05:42:11.613Z,19.5
2016-07-21T05:43:11.626Z,19.49
2016-07-21T05:44:11.635Z,19.46
2016-07-21T05:45:11.636Z,19.5
2016-07-21T05:46:11.657Z,19.46
2016-07-21T05:47:11.662Z,19.46
2016-07-21T05:48:11.590Z,19.45
2016-07-21T05:49:11.579Z,19.4
2016-07-21T05:50:11.583Z,19.42
2016-07-21T05:51:11.594Z,19.34
2016-07-21T05:52:11.594Z,19.43
2016-07-21T05:53:11.602Z,19.32
2016-07-21T05:54:11.607Z,19.31
2016-07-21T05:55:11.612Z,19.27
2016-07-21T05:56:11.628Z,19.24
2016-07-21T05:57:11.631Z,19.25
2016-07-21T05:58:11.655Z,19.28
2016-07-21T05:59:11.649Z,19.13
2016-07-21T06:00:11.569Z,19.19
2016-07-21T06:01:11.571Z,19.19
2016-07-21T06:02:11.569Z,19.09
2016-07-21T06:03:11.569Z,19.07
2016-07-21T06:04:11.590Z,19.02
2016-07-21T06:05:11.591Z,19.07
2016-07-21T06:06:11.602Z,18.94
2016-07-21T06:07:11.598Z,18.76
2016-07-21T06:08:11.606Z,18.87
2016-07-21T06:09:11.619Z,18.94
2016-07-21T06:10:11.632Z,18.89
2016-07-21T06:11:11.629Z,18.86
2016-07-21T06:12:11.651Z,18.9
2016-07-21T06:13:11.556Z,18.89
2016-07-21T06:14:11.551Z,18.87
2016-07-21T06:15:11.562Z,18.84
2016-07-21T06:16:11.570Z,18.87
2016-07-21T06:17:11.566Z,18.86
2016-07-21T06:18:11.604Z,18.89
2016-07-21T06:19:11.585Z,18.87
2016-07-21T06:20:11.601Z,18.97
2016-07-21T06:21:12.321Z,18.87
2016-07-21T06:22:11.603Z,18.84
2016-07-21T06:23:11.613Z,18.93
2016-07-21T06:24:11.623Z,18.87
2016-07-21T06:25:11.571Z,18.89
2016-07-21T06:26:11.573Z,18.9
2016-07-21T06:27:11.581Z,18.89
2016-07-21T06:28:11.555Z,18.91
2016-07-21T06:29:11.557Z,18.91
2016-07-21T06:30:11.574Z,18.91
2016-07-21T06:31:11.579Z,18.94
2016-07-21T06:32:11.618Z,18.9
2016-07-21T06:33:11.584Z,18.89
2016-07-21T06:34:11.594Z,18.94
2016-07-21T06:35:11.611Z,18.93
2016-07-21T06:36:12.330Z,18.97
2016-07-21T06:37:11.620Z,18.99
2016-07-21T06:38:11.530Z,18.91
2016-07-21T06:39:11.537Z,18.86
2016-07-21T06:40:11.552Z,18.91
2016-07-21T06:41:11.568Z,18.91
2016-07-21T06:42:11.566Z,18.96
2016-07-21T06:43:11.567Z,18.9
2016-07-21T06:44:11.563Z,18.94
2016-07-21T06:45:11.577Z,18.94
2016-07-21T06:46:11.582Z,18.9
2016-07-21T06:47:11.596Z,18.93
2016-07-21T06:48:11.599Z,18.84
2016-07-21T06:49:11.598Z,18.93
2016-07-21T06:50:11.519Z,18.96
2016-07-21T06:51:11.525Z,18.96
2016-07-21T06:52:11.520Z,18.93
2016-07-21T06:53:11.529Z,19
2016-07-21T06:54:11.543Z,19.02
2016-07-21T06:55:11.548Z,19.07
2016-07-21T06:56:11.554Z,19.06
2016-07-21T06:57:11.567Z,19.05
2016-07-21T06:58:11.569Z,19.07
2016-07-21T06:59:11.593Z,19
2016-07-21T07:00:11.587Z,19.07
2016-07-21T07:01:11.617Z,19.05
2016-07-21T07:02:11.600Z,19
2016-07-21T07:03:11.503Z,18.97
2016-07-21T07:04:11.505Z,18.99
2016-07-21T07:05:11.520Z,18.93
2016-07-21T07:06:11.545Z,18.91
2016-07-21T07:07:11.527Z,18.96
2016-07-21T07:08:11.541Z,18.96
2016-07-21T07:09:11.547Z,18.9
2016-07-21T07:10:11.569Z,18.91
2016-07-21T07:11:11.569Z,18.9
2016-07-21T07:12:11.565Z,18.87
2016-07-21T07:13:11.578Z,18.94
2016-07-21T07:14:11.577Z,18.89
2016-07-21T07:15:11.499Z,18.81
2016-07-21T07:16:11.495Z,18.87
2016-07-21T07:17:11.498Z,18.89
2016-07-21T07:18:11.501Z,18.94
2016-07-21T07:19:11.518Z,18.78
2016-07-21T07:20:11.534Z,18.9
2016-07-21T07:21:12.239Z,18.87
2016-07-21T07:22:11.526Z,18.82
2016-07-21T07:23:11.553Z,18.89
2016-07-21T07:24:11.556Z,18.86
2016-07-21T07:25:11.567Z,18.9
2016-07-21T07:26:11.575Z,18.89
2016-07-21T07:27:11.578Z,18.91
2016-07-21T07:28:12.186Z,18.91
2016-07-21T07:29:11.481Z,18.87
2016-07-21T07:30:11.506Z,18.91
2016-07-21T07:31:11.497Z,18.97
2016-07-21T07:32:11.508Z,18.93
2016-07-21T07:33:11.520Z,18.94
2016-07-21T07:34:11.517Z,18.96
2016-07-21T07:35:11.579Z,18.9
2016-07-21T07:36:11.546Z,18.84
2016-07-21T07:37:11.542Z,18.81
2016-07-21T07:38:11.550Z,18.86
2016-07-21T07:39:11.549Z,18.89
2016-07-21T07:40:11.485Z,18.89
2016-07-21T07:41:12.190Z,18.9
2016-07-21T07:42:11.487Z,18.87
2016-07-21T07:43:11.493Z,18.91
2016-07-21T07:44:11.526Z,18.84
2016-07-21T07:45:11.522Z,18.94
2016-07-21T07:46:11.525Z,18.93
2016-07-21T07:47:11.517Z,18.9
2016-07-21T07:48:11.519Z,18.93
2016-07-21T07:49:11.521Z,18.94
2016-07-21T07:50:11.536Z,18.96
2016-07-21T07:51:11.543Z,18.97
2016-07-21T07:52:11.527Z,18.97
2016-07-21T07:53:11.490Z,19.07
2016-07-21T07:54:11.465Z,19.07
2016-07-21T07:55:11.465Z,19.05
2016-07-21T07:56:11.481Z,19.06
2016-07-21T07:57:11.489Z,19.06
2016-07-21T07:58:11.497Z,19.1
2016-07-21T07:59:11.499Z,19.06
2016-07-21T08:00:11.503Z,19.09
2016-07-21T08:01:11.545Z,19.12
2016-07-21T08:02:11.564Z,19
2016-07-21T08:03:11.538Z,19.1
2016-07-21T08:04:11.541Z,19
2016-07-21T08:05:11.452Z,19.1
2016-07-21T08:06:11.440Z,19.05
2016-07-21T08:07:11.447Z,19.07
2016-07-21T08:08:11.464Z,19.06
2016-07-21T08:09:11.474Z,19.07
2016-07-21T08:10:11.484Z,19
2016-07-21T08:11:11.502Z,19.09
2016-07-21T08:12:11.498Z,19.1
2016-07-21T08:13:11.491Z,19.09
2016-07-21T08:14:11.510Z,19.09
2016-07-21T08:15:11.511Z,19.12
2016-07-21T08:16:11.534Z,19.12
2016-07-21T08:17:11.538Z,19.16
2016-07-21T08:18:11.443Z,19.16
2016-07-21T08:19:11.438Z,19.3
2016-07-21T08:20:11.453Z,19.24
2016-07-21T08:21:11.461Z,19.2
2016-07-21T08:22:11.471Z,19.23
2016-07-21T08:23:11.459Z,19.27
2016-07-21T08:24:11.475Z,19.27
2016-07-21T08:25:11.480Z,19.45
2016-07-21T08:26:11.492Z,19.49
2016-07-21T08:27:11.762Z,19.55
2016-07-21T08:28:11.500Z,19.47
2016-07-21T08:29:11.455Z,19.38
2016-07-21T08:30:11.419Z,19.52
2016-07-21T08:31:11.424Z,19.5
2016-07-21T08:32:11.462Z,19.52
2016-07-21T08:33:11.466Z,19.47
2016-07-21T08:34:11.445Z,19.53
2016-07-21T08:35:11.460Z,19.53
2016-07-21T08:36:11.476Z,19.53
2016-07-21T08:37:11.463Z,19.52
2016-07-21T08:38:11.480Z,19.52
2016-07-21T08:39:11.494Z,19.63
2016-07-21T08:40:11.494Z,19.75
2016-07-21T08:41:11.546Z,19.72
2016-07-21T08:42:11.551Z,19.63
2016-07-21T08:43:11.404Z,19.65
2016-07-21T08:44:11.447Z,19.7
2016-07-21T08:45:11.450Z,19.67
2016-07-21T08:46:11.445Z,19.79
2016-07-21T08:47:11.455Z,19.8
2016-07-21T08:48:11.483Z,19.83
2016-07-21T08:49:11.473Z,19.82
2016-07-21T08:50:11.464Z,19.8
2016-07-21T08:51:11.485Z,19.8
2016-07-21T08:52:11.467Z,19.71
2016-07-21T08:53:11.482Z,19.72
2016-07-21T08:54:11.494Z,19.65
2016-07-21T08:55:11.397Z,19.65
2016-07-21T08:56:11.395Z,19.71
2016-07-21T08:57:11.410Z,19.7
2016-07-21T08:58:11.412Z,19.71
2016-07-21T08:59:11.477Z,19.72
2016-07-21T09:00:11.445Z,19.65
2016-07-21T09:01:11.436Z,19.7
2016-07-21T09:02:11.444Z,19.71
2016-07-21T09:03:11.449Z,19.71
2016-07-21T09:04:11.465Z,19.72
2016-07-21T09:05:11.466Z,19.78
2016-07-21T09:06:12.192Z,19.82
2016-07-21T09:07:11.501Z,19.89
2016-07-21T09:08:11.395Z,19.97
2016-07-21T09:09:11.539Z,19.97
2016-07-21T09:10:11.405Z,19.97
2016-07-21T09:11:11.401Z,20.01
2016-07-21T09:12:11.407Z,20.04
2016-07-21T09:13:11.438Z,20.04
2016-07-21T09:14:11.434Z,20.05
2016-07-21T09:15:11.453Z,20.11
2016-07-21T09:16:11.455Z,20.18
2016-07-21T09:17:11.448Z,20.18
2016-07-21T09:18:11.468Z,20.27
2016-07-21T09:19:11.466Z,20.35
2016-07-21T09:20:11.378Z,20.32
2016-07-21T09:21:11.375Z,20.29
2016-07-21T09:22:11.380Z,20.29
2016-07-21T09:23:11.418Z,20.37
2016-07-21T09:24:11.491Z,20.37
2016-07-21T09:25:11.430Z,20.41
2016-07-21T09:26:11.414Z,20.37
2016-07-21T09:27:11.432Z,20.46
2016-07-21T09:28:11.444Z,20.44
2016-07-21T09:29:11.443Z,20.44
2016-07-21T09:30:11.454Z,20.51
2016-07-21T09:31:11.464Z,20.51
2016-07-21T09:32:11.469Z,20.54
2016-07-21T09:33:11.382Z,20.53
2016-07-21T09:34:11.380Z,20.49
2016-07-21T09:35:11.390Z,20.46
2016-07-21T09:36:11.387Z,20.51
2016-07-21T09:37:11.405Z,20.51
2016-07-21T09:38:11.413Z,20.54
2016-07-21T09:39:11.405Z,20.54
2016-07-21T09:40:11.446Z,20.56
2016-07-21T09:41:12.415Z,20.53
2016-07-21T09:42:11.449Z,20.49
2016-07-21T09:43:11.456Z,20.42
2016-07-21T09:44:11.453Z,20.49
2016-07-21T09:45:11.419Z,20.46
2016-07-21T09:46:11.387Z,20.46
2016-07-21T09:47:11.382Z,20.42
2016-07-21T09:48:11.386Z,20.51
2016-07-21T09:49:11.379Z,20.42
2016-07-21T09:50:11.377Z,20.42
2016-07-21T09:51:11.404Z,20.46
2016-07-21T09:52:11.399Z,20.41
2016-07-21T09:53:11.412Z,20.35
2016-07-21T09:54:11.422Z,20.48
2016-07-21T09:55:11.433Z,20.38
2016-07-21T09:56:11.437Z,20.44
2016-07-21T09:57:11.430Z,20.38
2016-07-21T09:58:11.381Z,20.35
2016-07-21T09:59:12.085Z,20.44
2016-07-21T10:00:11.374Z,20.38
2016-07-21T10:01:11.383Z,20.48
2016-07-21T10:02:11.380Z,20.42
2016-07-21T10:03:11.386Z,20.44
2016-07-21T10:04:11.395Z,20.41
2016-07-21T10:05:11.402Z,20.41
2016-07-21T10:06:11.460Z,20.42
2016-07-21T10:07:11.401Z,20.54
2016-07-21T10:08:11.414Z,20.53
2016-07-21T10:09:11.427Z,20.58
2016-07-21T10:10:11.436Z,20.58
2016-07-21T10:11:11.378Z,20.68
2016-07-21T10:12:11.382Z,20.64
2016-07-21T10:13:11.376Z,20.72
2016-07-21T10:14:11.396Z,20.71
2016-07-21T10:15:11.385Z,20.83
2016-07-21T10:16:11.383Z,20.81
2016-07-21T10:17:11.383Z,20.9
2016-07-21T10:18:11.392Z,20.88
2016-07-21T10:19:11.415Z,20.91
2016-07-21T10:20:11.402Z,20.91
2016-07-21T10:21:11.431Z,20.93
2016-07-21T10:22:11.411Z,20.91
2016-07-21T10:23:11.377Z,21.08
2016-07-21T10:24:11.370Z,21
2016-07-21T10:25:11.420Z,21.04
2016-07-21T10:26:11.400Z,20.96
2016-07-21T10:27:11.390Z,21.04
2016-07-21T10:28:11.385Z,21
2016-07-21T10:29:11.386Z,21.03
2016-07-21T10:30:11.385Z,21
2016-07-21T10:31:11.387Z,21.03
2016-07-21T10:32:11.413Z,21.03
2016-07-21T10:33:11.400Z,20.88
2016-07-21T10:34:11.404Z,20.81
2016-07-21T10:35:11.413Z,20.83
2016-07-21T10:36:11.385Z,20.74
2016-07-21T10:37:11.387Z,20.71
2016-07-21T10:38:11.384Z,20.56
2016-07-21T10:39:11.389Z,20.64
2016-07-21T10:40:11.387Z,20.49
2016-07-21T10:41:11.401Z,20.4
2016-07-21T10:42:11.379Z,20.4
2016-07-21T10:43:11.388Z,20.41
2016-07-21T10:44:11.394Z,20.46
2016-07-21T10:45:11.392Z,20.48
2016-07-21T10:46:11.396Z,20.4
2016-07-21T10:47:11.449Z,20.46
2016-07-21T10:48:11.483Z,20.42
2016-07-21T10:49:11.395Z,20.46
2016-07-21T10:50:11.398Z,20.42
2016-07-21T10:51:11.391Z,20.42
2016-07-21T10:52:11.385Z,20.49
2016-07-21T10:53:12.096Z,20.46
2016-07-21T10:54:12.371Z,20.35
2016-07-21T10:55:11.428Z,20.35
2016-07-21T10:56:11.385Z,20.3
2016-07-21T10:57:11.401Z,20.34
2016-07-21T10:58:11.389Z,20.2
2016-07-21T10:59:11.405Z,20.2
2016-07-21T11:00:11.399Z,20.16
2016-07-21T11:01:11.389Z,20.16
2016-07-21T11:02:11.395Z,20.12
2016-07-21T11:03:11.397Z,20.15
2016-07-21T11:04:11.395Z,20.15
2016-07-21T11:05:11.393Z,20.2
2016-07-21T11:06:11.390Z,20.16
2016-07-21T11:07:11.387Z,20.16
2016-07-21T11:08:11.386Z,20.18
2016-07-21T11:09:11.421Z,20.22
2016-07-21T11:10:11.404Z,20.11
2016-07-21T11:11:11.402Z,20.2
2016-07-21T11:12:11.396Z,20.16
2016-07-21T11:13:11.388Z,20.26
2016-07-21T11:14:11.403Z,20.2
2016-07-21T11:15:11.393Z,20.26
2016-07-21T11:16:11.397Z,20.38
2016-07-21T11:17:11.404Z,20.29
2016-07-21T11:18:11.400Z,20.38
2016-07-21T11:19:11.398Z,20.38
2016-07-21T11:20:11.400Z,20.35
2016-07-21T11:21:11.387Z,20.37
2016-07-21T11:22:11.397Z,20.42
2016-07-21T11:23:11.405Z,20.38
2016-07-21T11:24:11.406Z,20.49
2016-07-21T11:25:11.403Z,20.49
2016-07-21T11:26:11.400Z,20.37
2016-07-21T11:27:11.413Z,20.46
2016-07-21T11:28:11.398Z,20.53
2016-07-21T11:29:12.126Z,20.53
2016-07-21T11:30:11.398Z,20.53
2016-07-21T11:31:11.395Z,20.6
2016-07-21T11:32:11.398Z,20.64
2016-07-21T11:33:11.402Z,20.61
2016-07-21T11:34:11.402Z,20.57
2016-07-21T11:35:11.404Z,20.66
2016-07-21T11:36:11.395Z,20.6
2016-07-21T11:37:11.387Z,20.64
2016-07-21T11:38:11.388Z,20.56
2016-07-21T11:39:11.397Z,20.51
2016-07-21T11:40:11.426Z,20.53
2016-07-21T11:41:11.406Z,20.42
2016-07-21T11:42:11.404Z,20.4
2016-07-21T11:43:11.410Z,20.38
2016-07-21T11:44:11.411Z,20.41
2016-07-21T11:45:11.397Z,20.35
2016-07-21T11:46:11.407Z,20.34
2016-07-21T11:47:11.472Z,20.35
2016-07-21T11:48:11.412Z,20.29
2016-07-21T11:49:12.102Z,20.32
2016-07-21T11:50:11.394Z,20.26
2016-07-21T11:51:11.396Z,20.2
2016-07-21T11:52:11.397Z,20.04
2016-07-21T11:53:11.433Z,20.02
2016-07-21T11:54:11.421Z,20.02
2016-07-21T11:55:11.425Z,19.98
2016-07-21T11:56:11.413Z,19.95
2016-07-21T11:57:11.405Z,19.98
2016-07-21T11:58:11.394Z,19.92
2016-07-21T11:59:11.404Z,20
2016-07-21T12:00:11.418Z,19.9
2016-07-21T12:01:11.411Z,19.83
2016-07-21T12:02:11.409Z,19.98
2016-07-21T12:03:11.393Z,20
2016-07-21T12:04:11.389Z,19.97
2016-07-21T12:05:11.394Z,19.97
2016-07-21T12:06:11.397Z,19.97
2016-07-21T12:07:12.113Z,19.95
2016-07-21T12:08:11.389Z,20.04
2016-07-21T12:09:11.391Z,19.97
2016-07-21T12:10:12.819Z,20.07
2016-07-21T12:11:11.403Z,20.1
2016-07-21T12:12:11.391Z,20.01
2016-07-21T12:13:11.394Z,20.04
2016-07-21T12:14:11.405Z,20.01
2016-07-21T12:15:11.387Z,20.04
2016-07-21T12:16:11.395Z,20.02
2016-07-21T12:17:11.401Z,20.04
2016-07-21T12:18:11.393Z,20.1
2016-07-21T12:19:11.397Z,20.16
2016-07-21T12:20:11.389Z,20.16
2016-07-21T12:21:11.383Z,20.18
2016-07-21T12:22:11.395Z,20.19
2016-07-21T12:23:12.098Z,20.15
2016-07-21T12:24:11.395Z,20.15
2016-07-21T12:25:11.386Z,20.1
2016-07-21T12:26:11.392Z,20.26
2016-07-21T12:27:11.392Z,20.12
2016-07-21T12:28:11.391Z,20.2
2016-07-21T12:29:11.394Z,20.2
2016-07-21T12:30:11.397Z,20.11
2016-07-21T12:31:11.398Z,20.12
2016-07-21T12:32:11.385Z,20.05
2016-07-21T12:33:11.415Z,20.05
2016-07-21T12:34:11.403Z,20.07
2016-07-21T12:35:11.407Z,20.04
2016-07-21T12:36:11.390Z,20
2016-07-21T12:37:11.390Z,19.93
2016-07-21T12:38:11.393Z,19.93
2016-07-21T12:39:11.380Z,19.97
2016-07-21T12:40:11.397Z,20
2016-07-21T12:41:11.384Z,19.9
2016-07-21T12:42:11.404Z,19.93
2016-07-21T12:43:11.412Z,19.86
2016-07-21T12:44:11.386Z,19.85
2016-07-21T12:45:11.599Z,19.79
2016-07-21T12:46:12.102Z,19.82
2016-07-21T12:47:11.377Z,19.78
2016-07-21T12:48:11.391Z,19.74
2016-07-21T12:49:12.101Z,19.86
2016-07-21T12:50:11.398Z,19.89
2016-07-21T12:51:11.401Z,19.79
2016-07-21T12:52:12.099Z,19.79
2016-07-21T12:53:11.379Z,19.68
2016-07-21T12:54:11.384Z,19.68
2016-07-21T12:55:11.467Z,19.65
2016-07-21T12:56:11.408Z,19.68